createdAt,value
2022-09-21T00:01:12.446Z,11.70
2022-09-21T00:03:45.462Z,11.60
2022-09-21T00:06:19.738Z,11.40
2022-09-21T00:11:28.310Z,11.30
2022-09-21T00:14:04.535Z,11.30
2022-09-21T00:16:37.536Z,11.20
2022-09-21T00:21:42.755Z,11.20
2022-09-21T00:24:14.710Z,11.30
2022-09-21T00:26:47.105Z,11.30
2022-09-21T00:29:18.830Z,11.30
2022-09-21T00:31:51.252Z,11.30
2022-09-21T00:34:23.002Z,11.30
2022-09-21T00:36:55.441Z,11.30
2022-09-21T00:39:27.174Z,11.30
2022-09-21T00:41:59.550Z,11.30
2022-09-21T00:47:12.730Z,11.10
2022-09-21T00:49:49.486Z,11.10
2022-09-21T00:55:00.411Z,10.90
2022-09-21T00:57:33.282Z,10.90
2022-09-21T01:00:09.019Z,10.90
2022-09-21T01:02:43.042Z,10.70
2022-09-21T01:05:15.014Z,10.60
2022-09-21T01:07:48.747Z,10.60
2022-09-21T01:10:20.965Z,10.60
2022-09-21T01:16:11.353Z,10.50
2022-09-21T01:19:07.581Z,10.40
2022-09-21T01:22:15.917Z,10.50
2022-09-21T01:25:18.359Z,10.40
2022-09-21T01:28:30.337Z,10.30
2022-09-21T01:31:06.565Z,10.30
2022-09-21T01:33:51.230Z,10.20
2022-09-21T01:36:28.143Z,10.20
2022-09-21T01:39:04.592Z,10.30
2022-09-21T01:41:39.244Z,10.20
2022-09-21T01:44:18.489Z,10.40
2022-09-21T01:46:51.450Z,10.40
2022-09-21T01:49:30.272Z,10.40
2022-09-21T01:52:11.334Z,10.50
2022-09-21T01:54:48.798Z,10.60
2022-09-21T01:57:38.603Z,10.70
2022-09-21T02:00:12.609Z,10.70
2022-09-21T02:02:58.423Z,10.60
2022-09-21T02:05:31.707Z,10.40
2022-09-21T02:08:06.286Z,10.40
2022-09-21T02:11:06.410Z,10.30
2022-09-21T02:13:42.538Z,10.40
2022-09-21T02:16:36.099Z,10.30
2022-09-21T02:19:49.271Z,10.20
2022-09-21T02:22:32.103Z,10.10
2022-09-21T02:28:15.949Z,10.10
2022-09-21T02:31:00.879Z,10.00
2022-09-21T02:33:42.234Z,10.00
2022-09-21T02:36:43.791Z,10.00
2022-09-21T02:39:28.392Z,9.90
2022-09-21T02:44:45.701Z,9.80
2022-09-21T02:48:03.552Z,9.80
2022-09-21T02:50:54.319Z,10.00
2022-09-21T02:53:31.187Z,10.10
2022-09-21T02:58:44.050Z,9.90
2022-09-21T03:01:17.343Z,9.80
2022-09-21T03:03:50.056Z,9.70
2022-09-21T03:06:22.212Z,9.60
2022-09-21T03:08:54.569Z,9.50
2022-09-21T03:11:26.924Z,9.40
2022-09-21T03:13:59.373Z,9.30
2022-09-21T03:16:32.095Z,9.30
2022-09-21T03:19:05.506Z,9.20
2022-09-21T03:21:43.745Z,9.30
2022-09-21T03:24:36.292Z,9.40
2022-09-21T03:27:09.640Z,11.70
2022-09-21T03:32:14.470Z,9.90
2022-09-21T03:34:46.577Z,9.70
2022-09-21T03:37:19.147Z,9.60
2022-09-21T03:39:50.897Z,9.60
2022-09-21T03:42:23.474Z,9.40
2022-09-21T03:44:55.258Z,9.40
2022-09-21T03:47:29.555Z,9.30
2022-09-21T03:55:08.663Z,9.20
2022-09-21T03:57:41.194Z,9.20
2022-09-21T04:00:14.368Z,9.10
2022-09-21T04:05:18.869Z,9.20
2022-09-21T04:07:52.045Z,9.10
2022-09-21T04:13:01.766Z,9.10
2022-09-21T04:15:33.546Z,9.10
2022-09-21T04:18:06.372Z,9.00
2022-09-21T04:23:11.298Z,9.00
2022-09-21T04:25:44.081Z,9.20
2022-09-21T04:33:24.334Z,9.20
2022-09-21T04:35:56.533Z,9.00
2022-09-21T04:46:11.079Z,8.90
2022-09-21T04:56:22.279Z,8.60
2022-09-21T04:58:54.036Z,8.50
2022-09-21T05:01:26.830Z,8.60
2022-09-21T05:04:01.801Z,8.70
2022-09-21T05:06:35.640Z,8.50
2022-09-21T05:09:26.987Z,8.60
2022-09-21T05:11:59.892Z,8.60
2022-09-21T05:14:31.603Z,8.50
2022-09-21T05:17:04.184Z,8.60
2022-09-21T05:22:09.062Z,8.70
2022-09-21T05:24:40.787Z,8.80
2022-09-21T05:27:13.640Z,8.90
2022-09-21T05:35:04.376Z,9.30
2022-09-21T05:37:44.728Z,9.40
2022-09-21T05:40:16.962Z,9.50
2022-09-21T05:45:23.545Z,9.60
2022-09-21T05:53:10.107Z,9.60
2022-09-21T05:55:58.961Z,9.60
2022-09-21T06:01:25.688Z,9.30
2022-09-21T06:03:59.267Z,9.40
2022-09-21T06:09:04.134Z,9.60
2022-09-21T06:14:08.166Z,9.60
2022-09-21T06:16:41.905Z,9.70
2022-09-21T06:19:14.799Z,9.40
2022-09-21T06:24:19.529Z,9.40
2022-09-21T06:26:51.786Z,9.60
2022-09-21T06:29:23.694Z,9.60
2022-09-21T06:34:28.585Z,9.50
2022-09-21T06:37:01.207Z,9.40
2022-09-21T06:42:06.031Z,9.30
2022-09-21T06:44:37.897Z,9.30
2022-09-21T06:47:10.555Z,9.90
2022-09-21T06:49:42.742Z,9.50
2022-09-21T06:54:48.718Z,9.40
2022-09-21T06:59:53.703Z,9.50
2022-09-21T07:02:25.417Z,9.50
2022-09-21T07:10:06.222Z,9.50
2022-09-21T07:15:11.881Z,9.50
2022-09-21T07:17:51.759Z,9.60
2022-09-21T07:22:58.101Z,9.70
2022-09-21T07:25:29.811Z,9.70
2022-09-21T07:28:03.409Z,9.70
2022-09-21T07:30:37.177Z,9.80
2022-09-21T07:33:10.230Z,9.70
2022-09-21T07:35:51.155Z,9.90
2022-09-21T07:40:56.242Z,10.20
2022-09-21T07:43:28.947Z,10.30
2022-09-21T07:51:12.646Z,10.40
2022-09-21T07:53:44.697Z,10.50
2022-09-21T07:56:17.934Z,10.50
2022-09-21T08:01:47.827Z,10.70
2022-09-21T08:06:52.072Z,11.00
2022-09-21T08:09:23.790Z,11.20
2022-09-21T08:11:57.298Z,12.00
2022-09-21T08:14:29.286Z,13.90
2022-09-21T08:17:02.688Z,15.50
2022-09-21T08:19:36.265Z,16.30
2022-09-21T08:24:44.442Z,16.90
2022-09-21T08:29:51.924Z,17.80
2022-09-21T08:32:49.477Z,17.60
2022-09-21T08:35:16.492Z,17.90
2022-09-21T08:37:51.079Z,17.80
2022-09-21T08:40:24.206Z,17.90
2022-09-21T08:43:12.976Z,17.80
2022-09-21T08:45:47.151Z,17.30
2022-09-21T08:48:36.679Z,17.50
2022-09-21T08:53:48.053Z,17.90
2022-09-21T08:56:22.394Z,18.40
2022-09-21T08:58:54.561Z,18.00
2022-09-21T09:04:43.388Z,18.30
2022-09-21T09:07:41.208Z,18.20
2022-09-21T09:13:03.995Z,18.10
2022-09-21T09:15:42.499Z,18.50
2022-09-21T09:18:43.687Z,18.80
2022-09-21T09:21:28.980Z,19.20
2022-09-21T09:24:19.991Z,19.30
2022-09-21T09:26:55.448Z,19.00
2022-09-21T09:32:19.518Z,19.00
2022-09-21T09:34:59.694Z,19.20
2022-09-21T09:40:08.640Z,19.40
2022-09-21T09:42:43.812Z,19.70
2022-09-21T09:45:59.220Z,21.10
2022-09-21T09:48:38.571Z,19.60
2022-09-21T09:51:12.940Z,19.70
2022-09-21T09:53:45.544Z,19.30
2022-09-21T09:56:18.612Z,19.00
2022-09-21T10:01:42.714Z,20.20
2022-09-21T10:06:49.776Z,20.80
2022-09-21T10:09:33.972Z,21.40
2022-09-21T10:12:25.801Z,20.90
2022-09-21T10:15:01.248Z,21.30
2022-09-21T10:17:33.097Z,19.00
2022-09-21T10:20:08.743Z,21.80
2022-09-21T10:22:47.589Z,21.50
2022-09-21T10:25:21.427Z,20.70
2022-09-21T10:27:54.990Z,20.80
2022-09-21T10:30:30.623Z,20.30
2022-09-21T10:33:03.200Z,21.20
2022-09-21T10:38:27.599Z,22.30
2022-09-21T10:41:00.302Z,21.80
2022-09-21T10:46:14.624Z,21.60
2022-09-21T10:48:47.432Z,20.80
2022-09-21T11:21:24.489Z,27.50
2022-09-21T11:23:56.091Z,25.10
2022-09-21T11:26:34.018Z,23.80
2022-09-21T11:29:11.151Z,23.10
2022-09-21T11:56:47.184Z,24.10
2022-09-21T16:17:12.668Z,20.80
2022-09-21T16:20:15.461Z,19.90
2022-09-21T16:22:49.881Z,19.20
2022-09-21T16:25:37.341Z,18.90
2022-09-21T16:28:18.094Z,18.80
2022-09-21T16:30:52.754Z,18.60
2022-09-21T16:33:37.573Z,18.60
2022-09-21T16:36:34.146Z,18.50
2022-09-21T16:39:14.947Z,18.40
2022-09-21T16:41:54.443Z,18.30
2022-09-21T16:44:36.719Z,18.30
2022-09-21T16:47:15.157Z,18.20
2022-09-21T16:52:19.933Z,18.10
2022-09-21T16:54:51.996Z,18.10
2022-09-21T16:57:25.342Z,18.10
2022-09-21T16:59:57.150Z,18.00
2022-09-21T17:02:29.916Z,18.00
2022-09-21T17:05:02.041Z,17.90
2022-09-21T17:07:34.409Z,17.80
2022-09-21T17:10:14.482Z,17.70
2022-09-21T17:12:47.446Z,17.50
2022-09-21T17:17:52.855Z,17.30
2022-09-21T17:20:35.246Z,17.10
2022-09-21T17:23:08.176Z,17.00
2022-09-21T17:25:39.889Z,16.80
2022-09-21T17:28:23.697Z,16.60
2022-09-21T17:30:55.776Z,16.50
2022-09-21T17:33:28.245Z,16.30
2022-09-21T17:35:59.955Z,16.20
2022-09-21T17:38:32.356Z,16.10
2022-09-21T17:41:07.524Z,16.10
2022-09-21T17:43:50.388Z,16.00
2022-09-21T17:46:31.455Z,16.00
2022-09-21T17:49:04.666Z,15.90
2022-09-21T17:54:28.110Z,15.70
2022-09-21T17:57:05.702Z,15.70
2022-09-21T18:02:24.203Z,15.50
2022-09-21T18:05:04.314Z,15.50
2022-09-21T18:10:12.310Z,15.40
2022-09-21T18:13:02.841Z,15.40
2022-09-21T18:16:06.575Z,15.30
2022-09-21T18:18:51.137Z,15.20
2022-09-21T18:21:28.271Z,15.20
2022-09-21T18:24:15.095Z,15.10
2022-09-21T18:26:49.395Z,15.00
2022-09-21T18:29:40.345Z,14.90
2022-09-21T18:32:31.756Z,14.70
2022-09-21T18:35:21.165Z,14.60
2022-09-21T18:38:13.372Z,14.50
2022-09-21T18:41:09.414Z,14.20
2022-09-21T18:44:00.511Z,14.20
2022-09-21T18:46:53.934Z,14.10
2022-09-21T18:49:45.206Z,14.20
2022-09-21T18:52:43.176Z,14.10
2022-09-21T18:55:27.448Z,14.00
2022-09-21T18:58:00.140Z,13.90
2022-09-21T19:00:34.520Z,13.80
2022-09-21T19:03:22.871Z,13.70
2022-09-21T19:06:45.613Z,15.60
2022-09-21T19:09:23.359Z,15.80
2022-09-21T19:12:11.239Z,15.00
2022-09-21T19:15:11.557Z,13.70
2022-09-21T19:18:20.812Z,13.50
2022-09-21T19:21:20.583Z,13.20
2022-09-21T19:24:05.637Z,10.10
2022-09-21T19:27:13.342Z,12.90
2022-09-21T19:29:50.656Z,12.60
2022-09-21T19:32:48.665Z,12.50
2022-09-21T19:35:22.998Z,12.40
2022-09-21T19:37:56.814Z,12.30
2022-09-21T19:40:32.579Z,12.30
2022-09-21T19:43:30.640Z,12.30
2022-09-21T19:46:21.867Z,12.20
2022-09-21T19:48:55.492Z,12.20
2022-09-21T19:51:37.642Z,12.00
2022-09-21T19:54:30.526Z,11.90
2022-09-21T19:57:30.158Z,11.80
2022-09-21T20:00:02.382Z,11.70
2022-09-21T20:02:36.843Z,11.60
2022-09-21T20:05:30.641Z,11.60
2022-09-21T20:08:05.799Z,11.60
2022-09-21T20:10:44.363Z,11.50
2022-09-21T20:13:21.243Z,11.50
2022-09-21T20:16:04.952Z,11.40
2022-09-21T20:18:40.933Z,11.30
2022-09-21T20:21:13.786Z,11.30
2022-09-21T20:23:51.465Z,11.30
2022-09-21T20:26:25.125Z,11.20
2022-09-21T20:28:58.221Z,11.20
2022-09-21T20:31:29.932Z,11.20
2022-09-21T20:34:02.207Z,11.20
2022-09-21T20:36:33.926Z,11.30
2022-09-21T20:39:06.791Z,11.30
2022-09-21T20:41:39.556Z,11.30
2022-09-21T20:44:13.043Z,11.40
2022-09-21T20:46:44.674Z,11.60
2022-09-21T20:49:17.084Z,11.50
2022-09-21T20:51:48.765Z,11.30
2022-09-21T20:54:21.181Z,11.20
2022-09-21T20:56:52.805Z,11.10
2022-09-21T20:59:25.235Z,11.00
2022-09-21T21:01:56.927Z,11.10
2022-09-21T21:04:29.262Z,11.10
2022-09-21T21:07:00.939Z,11.10
2022-09-21T21:09:33.303Z,11.10
2022-09-21T21:12:05.085Z,11.10
2022-09-21T21:14:37.423Z,11.10
2022-09-21T21:17:09.086Z,11.30
2022-09-21T21:19:44.597Z,11.30
2022-09-21T21:22:16.240Z,11.30
2022-09-21T21:24:48.928Z,11.20
2022-09-21T21:27:22.266Z,11.20
2022-09-21T21:29:55.347Z,11.10
2022-09-21T21:32:27.069Z,11.10
2022-09-21T21:34:59.707Z,12.70
2022-09-21T21:37:31.370Z,11.10
2022-09-21T21:40:03.935Z,11.10
2022-09-21T21:42:35.698Z,11.10
2022-09-21T21:45:08.462Z,11.10
2022-09-21T21:47:41.227Z,11.00
2022-09-21T21:50:13.990Z,11.70
2022-09-21T21:52:45.644Z,10.90
2022-09-21T21:55:17.927Z,10.90
2022-09-21T21:57:49.574Z,10.90
2022-09-21T22:00:22.356Z,10.80
2022-09-21T22:02:57.176Z,10.90
2022-09-21T22:05:29.726Z,10.80
2022-09-21T22:08:01.489Z,10.70
2022-09-21T22:10:35.081Z,10.70
2022-09-21T22:13:07.012Z,10.70
2022-09-21T22:15:39.378Z,10.80
2022-09-21T22:18:11.255Z,10.70
2022-09-21T22:20:43.968Z,10.60
2022-09-21T22:23:16.476Z,10.60
2022-09-21T22:25:48.821Z,10.50
2022-09-21T22:28:20.499Z,10.50
2022-09-21T22:30:52.852Z,10.50
2022-09-21T22:33:24.520Z,10.60
2022-09-21T22:36:01.612Z,10.50
2022-09-21T22:38:33.995Z,10.50
2022-09-21T22:41:09.526Z,10.50
2022-09-21T22:43:41.201Z,10.30
2022-09-21T22:46:14.211Z,10.30
2022-09-21T22:48:46.098Z,10.20
2022-09-21T22:51:19.152Z,10.20
2022-09-21T22:53:51.309Z,10.20
2022-09-21T22:56:25.102Z,10.20
2022-09-21T22:58:58.589Z,10.30
2022-09-21T23:01:35.547Z,10.30
2022-09-21T23:04:11.673Z,10.30
2022-09-21T23:06:45.586Z,10.30
2022-09-21T23:09:18.634Z,10.20
2022-09-21T23:11:53.884Z,10.20
2022-09-21T23:14:25.793Z,10.20
2022-09-21T23:16:58.332Z,10.10
2022-09-21T23:19:30.032Z,10.20
2022-09-21T23:22:02.435Z,10.20
2022-09-21T23:24:34.265Z,10.10
2022-09-21T23:27:06.698Z,10.10
2022-09-21T23:29:38.335Z,10.10
2022-09-21T23:32:10.703Z,10.10
2022-09-21T23:34:42.359Z,10.00
2022-09-21T23:37:14.610Z,10.00
2022-09-21T23:39:46.238Z,10.00
2022-09-21T23:42:20.176Z,10.00
2022-09-21T23:44:51.940Z,10.00
2022-09-21T23:47:24.454Z,10.00
2022-09-21T23:49:56.614Z,10.00
2022-09-21T23:52:28.553Z,10.00
2022-09-21T23:55:01.021Z,10.00
2022-09-21T23:57:32.719Z,10.00
